sensor_id;sensor_type;location;lat;lon;timestamp;P1;durP1;ratioP1;P2;durP2;ratioP2
703;SDS011;335;48.694;9.120;2022-11-20T00:01:17;5.10;;;4.70;;
703;SDS011;335;48.694;9.120;2022-11-20T00:03:44;4.47;;;4.07;;
703;SDS011;335;48.694;9.120;2022-11-20T00:06:11;4.90;;;4.40;;
703;SDS011;335;48.694;9.120;2022-11-20T00:08:37;4.53;;;4.25;;
703;SDS011;335;48.694;9.120;2022-11-20T00:11:10;3.70;;;3.50;;
703;SDS011;335;48.694;9.120;2022-11-20T00:13:37;6.25;;;5.25;;
703;SDS011;335;48.694;9.120;2022-11-20T00:16:03;4.00;;;3.77;;
703;SDS011;335;48.694;9.120;2022-11-20T00:18:30;5.18;;;4.70;;
703;SDS011;335;48.694;9.120;2022-11-20T00:21:12;5.17;;;4.80;;
703;SDS011;335;48.694;9.120;2022-11-20T00:23:39;4.15;;;3.85;;
703;SDS011;335;48.694;9.120;2022-11-20T00:26:05;4.63;;;4.27;;
703;SDS011;335;48.694;9.120;2022-11-20T00:28:31;3.85;;;3.60;;
703;SDS011;335;48.694;9.120;2022-11-20T00:31:03;4.37;;;4.07;;
703;SDS011;335;48.694;9.120;2022-11-20T00:33:34;5.15;;;4.65;;
703;SDS011;335;48.694;9.120;2022-11-20T00:36:03;4.53;;;4.13;;
703;SDS011;335;48.694;9.120;2022-11-20T00:38:30;4.35;;;4.05;;
703;SDS011;335;48.694;9.120;2022-11-20T00:40:56;4.32;;;4.03;;
703;SDS011;335;48.694;9.120;2022-11-20T00:43:23;3.70;;;3.50;;
703;SDS011;335;48.694;9.120;2022-11-20T00:45:49;3.33;;;3.13;;
703;SDS011;335;48.694;9.120;2022-11-20T00:48:14;3.67;;;3.47;;
703;SDS011;335;48.694;9.120;2022-11-20T00:50:40;3.33;;;3.03;;
703;SDS011;335;48.694;9.120;2022-11-20T00:53:06;4.63;;;4.22;;
703;SDS011;335;48.694;9.120;2022-11-20T00:55:31;3.17;;;2.97;;
703;SDS011;335;48.694;9.120;2022-11-20T00:57:57;3.67;;;3.47;;
703;SDS011;335;48.694;9.120;2022-11-20T01:00:22;4.10;;;3.37;;
703;SDS011;335;48.694;9.120;2022-11-20T01:02:47;3.67;;;3.37;;
703;SDS011;335;48.694;9.120;2022-11-20T01:05:12;3.33;;;3.13;;
703;SDS011;335;48.694;9.120;2022-11-20T01:07:38;3.23;;;3.03;;
703;SDS011;335;48.694;9.120;2022-11-20T01:10:03;3.90;;;3.60;;
703;SDS011;335;48.694;9.120;2022-11-20T01:12:29;3.50;;;3.20;;
703;SDS011;335;48.694;9.120;2022-11-20T01:14:54;3.33;;;2.90;;
703;SDS011;335;48.694;9.120;2022-11-20T01:17:19;3.60;;;3.30;;
703;SDS011;335;48.694;9.120;2022-11-20T01:19:45;3.10;;;2.90;;
703;SDS011;335;48.694;9.120;2022-11-20T01:22:13;5.00;;;3.80;;
703;SDS011;335;48.694;9.120;2022-11-20T01:24:39;3.43;;;3.20;;
703;SDS011;335;48.694;9.120;2022-11-20T01:27:04;4.70;;;3.80;;
703;SDS011;335;48.694;9.120;2022-11-20T01:29:29;4.30;;;3.93;;
703;SDS011;335;48.694;9.120;2022-11-20T01:31:55;3.37;;;3.17;;
703;SDS011;335;48.694;9.120;2022-11-20T01:34:21;3.90;;;3.70;;
703;SDS011;335;48.694;9.120;2022-11-20T01:36:47;3.95;;;3.50;;
703;SDS011;335;48.694;9.120;2022-11-20T01:39:17;3.73;;;3.47;;
703;SDS011;335;48.694;9.120;2022-11-20T01:41:45;3.70;;;3.50;;
703;SDS011;335;48.694;9.120;2022-11-20T01:47:39;3.88;;;3.50;;
703;SDS011;335;48.694;9.120;2022-11-20T01:50:11;4.35;;;4.05;;
703;SDS011;335;48.694;9.120;2022-11-20T01:52:46;5.63;;;3.58;;
703;SDS011;335;48.694;9.120;2022-11-20T01:55:53;3.40;;;3.10;;
703;SDS011;335;48.694;9.120;2022-11-20T01:58:15;5.53;;;3.78;;
703;SDS011;335;48.694;9.120;2022-11-20T02:00:43;3.85;;;3.60;;
703;SDS011;335;48.694;9.120;2022-11-20T02:03:09;6.03;;;4.00;;
703;SDS011;335;48.694;9.120;2022-11-20T02:08:24;4.43;;;4.13;;
703;SDS011;335;48.694;9.120;2022-11-20T02:10:49;4.20;;;3.90;;
703;SDS011;335;48.694;9.120;2022-11-20T02:13:14;4.23;;;3.93;;
703;SDS011;335;48.694;9.120;2022-11-20T02:15:59;4.38;;;4.07;;
703;SDS011;335;48.694;9.120;2022-11-20T02:18:24;4.23;;;3.93;;
703;SDS011;335;48.694;9.120;2022-11-20T02:20:52;5.10;;;4.60;;
703;SDS011;335;48.694;9.120;2022-11-20T02:23:31;5.50;;;5.00;;
703;SDS011;335;48.694;9.120;2022-11-20T02:26:00;4.93;;;4.57;;
703;SDS011;335;48.694;9.120;2022-11-20T02:28:27;5.05;;;4.65;;
703;SDS011;335;48.694;9.120;2022-11-20T02:30:53;5.00;;;4.60;;
703;SDS011;335;48.694;9.120;2022-11-20T02:33:18;5.40;;;5.00;;
703;SDS011;335;48.694;9.120;2022-11-20T02:35:44;6.43;;;5.83;;
703;SDS011;335;48.694;9.120;2022-11-20T02:38:11;5.95;;;5.45;;
703;SDS011;335;48.694;9.120;2022-11-20T02:40:37;6.47;;;5.63;;
703;SDS011;335;48.694;9.120;2022-11-20T02:43:02;6.13;;;5.53;;
703;SDS011;335;48.694;9.120;2022-11-20T02:45:27;5.67;;;5.17;;
703;SDS011;335;48.694;9.120;2022-11-20T02:47:53;8.33;;;7.47;;
703;SDS011;335;48.694;9.120;2022-11-20T02:50:18;6.60;;;6.00;;
703;SDS011;335;48.694;9.120;2022-11-20T02:52:44;6.20;;;5.60;;
703;SDS011;335;48.694;9.120;2022-11-20T02:55:09;6.63;;;6.03;;
703;SDS011;335;48.694;9.120;2022-11-20T02:57:35;6.70;;;6.10;;
703;SDS011;335;48.694;9.120;2022-11-20T03:00:00;6.53;;;5.30;;
703;SDS011;335;48.694;9.120;2022-11-20T03:02:29;5.50;;;5.10;;
703;SDS011;335;48.694;9.120;2022-11-20T03:04:55;5.75;;;5.32;;
703;SDS011;335;48.694;9.120;2022-11-20T03:07:20;6.27;;;5.77;;
703;SDS011;335;48.694;9.120;2022-11-20T03:09:45;7.40;;;5.93;;
703;SDS011;335;48.694;9.120;2022-11-20T03:12:11;6.00;;;5.57;;
703;SDS011;335;48.694;9.120;2022-11-20T03:14:36;5.27;;;4.80;;
703;SDS011;335;48.694;9.120;2022-11-20T03:17:01;6.23;;;5.50;;
703;SDS011;335;48.694;9.120;2022-11-20T03:19:27;6.20;;;5.60;;
703;SDS011;335;48.694;9.120;2022-11-20T03:21:52;6.03;;;5.43;;
703;SDS011;335;48.694;9.120;2022-11-20T03:24:17;5.93;;;5.37;;
703;SDS011;335;48.694;9.120;2022-11-20T03:26:43;7.13;;;5.37;;
703;SDS011;335;48.694;9.120;2022-11-20T03:29:08;5.50;;;4.97;;
703;SDS011;335;48.694;9.120;2022-11-20T03:31:35;6.13;;;5.60;;
703;SDS011;335;48.694;9.120;2022-11-20T03:34:02;6.50;;;5.90;;
703;SDS011;335;48.694;9.120;2022-11-20T03:36:28;5.85;;;5.40;;
703;SDS011;335;48.694;9.120;2022-11-20T03:38:54;5.80;;;5.30;;
703;SDS011;335;48.694;9.120;2022-11-20T03:41:27;7.00;;;6.22;;
703;SDS011;335;48.694;9.120;2022-11-20T03:43:58;6.57;;;6.07;;
703;SDS011;335;48.694;9.120;2022-11-20T03:46:25;6.28;;;5.68;;
703;SDS011;335;48.694;9.120;2022-11-20T03:48:51;7.30;;;6.60;;
703;SDS011;335;48.694;9.120;2022-11-20T03:51:17;6.33;;;5.73;;
703;SDS011;335;48.694;9.120;2022-11-20T03:53:44;5.80;;;5.30;;
703;SDS011;335;48.694;9.120;2022-11-20T03:56:11;5.57;;;5.13;;
703;SDS011;335;48.694;9.120;2022-11-20T03:58:38;6.07;;;5.10;;
703;SDS011;335;48.694;9.120;2022-11-20T04:03:40;6.95;;;6.15;;
703;SDS011;335;48.694;9.120;2022-11-20T04:06:08;6.22;;;5.63;;
703;SDS011;335;48.694;9.120;2022-11-20T04:08:34;7.00;;;6.22;;
703;SDS011;335;48.694;9.120;2022-11-20T04:11:19;6.60;;;5.80;;
703;SDS011;335;48.694;9.120;2022-11-20T04:13:48;9.23;;;6.18;;
703;SDS011;335;48.694;9.120;2022-11-20T04:16:15;8.70;;;6.20;;
703;SDS011;335;48.694;9.120;2022-11-20T04:18:41;5.97;;;5.47;;
703;SDS011;335;48.694;9.120;2022-11-20T04:21:08;6.90;;;6.20;;
703;SDS011;335;48.694;9.120;2022-11-20T04:23:34;6.37;;;5.77;;
703;SDS011;335;48.694;9.120;2022-11-20T04:26:06;5.23;;;4.83;;
703;SDS011;335;48.694;9.120;2022-11-20T04:28:35;6.93;;;6.32;;
703;SDS011;335;48.694;9.120;2022-11-20T04:31:02;6.80;;;6.07;;
703;SDS011;335;48.694;9.120;2022-11-20T04:33:31;7.72;;;6.65;;
703;SDS011;335;48.694;9.120;2022-11-20T04:35:59;7.47;;;6.87;;
703;SDS011;335;48.694;9.120;2022-11-20T04:38:26;8.60;;;6.60;;
703;SDS011;335;48.694;9.120;2022-11-20T04:40:55;6.40;;;5.60;;
703;SDS011;335;48.694;9.120;2022-11-20T04:43:21;7.18;;;6.47;;
703;SDS011;335;48.694;9.120;2022-11-20T04:45:51;6.60;;;6.00;;
703;SDS011;335;48.694;9.120;2022-11-20T04:48:17;8.70;;;7.75;;
703;SDS011;335;48.694;9.120;2022-11-20T04:50:42;7.07;;;6.37;;
703;SDS011;335;48.694;9.120;2022-11-20T04:53:08;6.20;;;5.70;;
703;SDS011;335;48.694;9.120;2022-11-20T04:55:33;6.47;;;5.93;;
703;SDS011;335;48.694;9.120;2022-11-20T04:57:58;6.47;;;5.97;;
703;SDS011;335;48.694;9.120;2022-11-20T05:00:25;6.20;;;5.70;;
703;SDS011;335;48.694;9.120;2022-11-20T05:02:50;5.45;;;5.05;;
703;SDS011;335;48.694;9.120;2022-11-20T05:05:16;5.50;;;5.00;;
703;SDS011;335;48.694;9.120;2022-11-20T05:07:45;5.22;;;4.80;;
703;SDS011;335;48.694;9.120;2022-11-20T05:10:11;5.43;;;5.03;;
703;SDS011;335;48.694;9.120;2022-11-20T05:12:37;5.07;;;4.60;;
703;SDS011;335;48.694;9.120;2022-11-20T05:15:02;4.70;;;4.40;;
703;SDS011;335;48.694;9.120;2022-11-20T05:17:28;4.83;;;4.43;;
703;SDS011;335;48.694;9.120;2022-11-20T05:19:53;5.23;;;4.73;;
703;SDS011;335;48.694;9.120;2022-11-20T05:22:18;5.17;;;4.77;;
703;SDS011;335;48.694;9.120;2022-11-20T05:24:44;5.37;;;4.87;;
703;SDS011;335;48.694;9.120;2022-11-20T05:27:10;5.63;;;4.68;;
703;SDS011;335;48.694;9.120;2022-11-20T05:29:35;5.77;;;4.33;;
703;SDS011;335;48.694;9.120;2022-11-20T05:32:01;4.57;;;4.20;;
703;SDS011;335;48.694;9.120;2022-11-20T05:34:26;4.40;;;4.10;;
703;SDS011;335;48.694;9.120;2022-11-20T05:36:51;4.53;;;4.20;;
703;SDS011;335;48.694;9.120;2022-11-20T05:39:17;6.23;;;5.03;;
703;SDS011;335;48.694;9.120;2022-11-20T05:41:43;5.13;;;4.63;;
703;SDS011;335;48.694;9.120;2022-11-20T05:44:12;4.68;;;4.38;;
703;SDS011;335;48.694;9.120;2022-11-20T05:46:37;5.00;;;4.38;;
703;SDS011;335;48.694;9.120;2022-11-20T05:49:02;5.27;;;4.67;;
703;SDS011;335;48.694;9.120;2022-11-20T05:51:28;4.13;;;3.83;;
703;SDS011;335;48.694;9.120;2022-11-20T05:54:01;5.80;;;4.35;;
703;SDS011;335;48.694;9.120;2022-11-20T05:56:27;4.82;;;4.43;;
703;SDS011;335;48.694;9.120;2022-11-20T05:58:53;4.70;;;4.30;;
703;SDS011;335;48.694;9.120;2022-11-20T06:01:19;5.20;;;4.70;;
703;SDS011;335;48.694;9.120;2022-11-20T06:03:46;4.68;;;4.25;;
703;SDS011;335;48.694;9.120;2022-11-20T06:06:13;4.70;;;4.40;;
703;SDS011;335;48.694;9.120;2022-11-20T06:08:39;4.30;;;4.00;;
703;SDS011;335;48.694;9.120;2022-11-20T06:11:05;6.43;;;3.90;;
703;SDS011;335;48.694;9.120;2022-11-20T06:13:32;5.50;;;4.28;;
703;SDS011;335;48.694;9.120;2022-11-20T06:15:57;4.47;;;4.17;;
703;SDS011;335;48.694;9.120;2022-11-20T06:18:23;3.77;;;3.47;;
703;SDS011;335;48.694;9.120;2022-11-20T06:20:48;4.33;;;3.93;;
703;SDS011;335;48.694;9.120;2022-11-20T06:23:13;4.67;;;4.27;;
703;SDS011;335;48.694;9.120;2022-11-20T06:25:39;4.33;;;4.03;;
703;SDS011;335;48.694;9.120;2022-11-20T06:28:05;4.40;;;3.95;;
703;SDS011;335;48.694;9.120;2022-11-20T06:30:31;4.40;;;4.03;;
703;SDS011;335;48.694;9.120;2022-11-20T06:32:56;3.43;;;3.23;;
703;SDS011;335;48.694;9.120;2022-11-20T06:35:21;5.13;;;4.70;;
703;SDS011;335;48.694;9.120;2022-11-20T06:37:46;4.63;;;4.30;;
703;SDS011;335;48.694;9.120;2022-11-20T06:40:12;4.30;;;3.90;;
703;SDS011;335;48.694;9.120;2022-11-20T06:42:37;3.80;;;3.53;;
703;SDS011;335;48.694;9.120;2022-11-20T06:45:03;4.30;;;4.00;;
703;SDS011;335;48.694;9.120;2022-11-20T06:47:28;4.37;;;3.80;;
703;SDS011;335;48.694;9.120;2022-11-20T06:49:54;4.43;;;4.13;;
703;SDS011;335;48.694;9.120;2022-11-20T06:52:19;3.90;;;3.70;;
703;SDS011;335;48.694;9.120;2022-11-20T06:54:44;3.90;;;3.37;;
703;SDS011;335;48.694;9.120;2022-11-20T06:57:10;4.00;;;3.70;;
703;SDS011;335;48.694;9.120;2022-11-20T06:59:35;4.33;;;4.03;;
703;SDS011;335;48.694;9.120;2022-11-20T07:02:00;3.63;;;3.43;;
703;SDS011;335;48.694;9.120;2022-11-20T07:04:26;3.60;;;3.27;;
703;SDS011;335;48.694;9.120;2022-11-20T07:06:51;3.90;;;3.50;;
703;SDS011;335;48.694;9.120;2022-11-20T07:09:16;3.87;;;3.67;;
703;SDS011;335;48.694;9.120;2022-11-20T07:11:41;3.73;;;3.53;;
703;SDS011;335;48.694;9.120;2022-11-20T07:14:07;3.67;;;3.47;;
703;SDS011;335;48.694;9.120;2022-11-20T07:16:32;3.83;;;3.03;;
703;SDS011;335;48.694;9.120;2022-11-20T07:18:57;3.90;;;3.60;;
703;SDS011;335;48.694;9.120;2022-11-20T07:21:23;3.90;;;3.60;;
703;SDS011;335;48.694;9.120;2022-11-20T07:23:48;4.20;;;3.90;;
703;SDS011;335;48.694;9.120;2022-11-20T07:26:15;4.63;;;3.60;;
703;SDS011;335;48.694;9.120;2022-11-20T07:28:43;4.00;;;3.70;;
703;SDS011;335;48.694;9.120;2022-11-20T07:31:09;3.95;;;3.65;;
703;SDS011;335;48.694;9.120;2022-11-20T07:33:34;6.00;;;3.40;;
703;SDS011;335;48.694;9.120;2022-11-20T07:35:59;3.73;;;3.47;;
703;SDS011;335;48.694;9.120;2022-11-20T07:38:27;3.40;;;3.20;;
703;SDS011;335;48.694;9.120;2022-11-20T07:40:58;5.55;;;4.22;;
703;SDS011;335;48.694;9.120;2022-11-20T07:43:26;6.38;;;4.60;;
703;SDS011;335;48.694;9.120;2022-11-20T07:45:52;3.30;;;3.00;;
703;SDS011;335;48.694;9.120;2022-11-20T07:48:20;3.53;;;3.33;;
703;SDS011;335;48.694;9.120;2022-11-20T07:50:45;3.53;;;3.23;;
703;SDS011;335;48.694;9.120;2022-11-20T07:53:12;3.37;;;2.93;;
703;SDS011;335;48.694;9.120;2022-11-20T07:55:39;3.55;;;3.25;;
703;SDS011;335;48.694;9.120;2022-11-20T07:58:05;4.88;;;4.43;;
703;SDS011;335;48.694;9.120;2022-11-20T08:00:30;3.50;;;3.20;;
703;SDS011;335;48.694;9.120;2022-11-20T08:02:55;3.20;;;3.00;;
703;SDS011;335;48.694;9.120;2022-11-20T08:05:21;3.43;;;3.23;;
703;SDS011;335;48.694;9.120;2022-11-20T08:07:46;2.97;;;2.77;;
703;SDS011;335;48.694;9.120;2022-11-20T08:10:12;3.50;;;3.30;;
703;SDS011;335;48.694;9.120;2022-11-20T08:12:45;4.50;;;3.30;;
703;SDS011;335;48.694;9.120;2022-11-20T08:15:33;3.75;;;3.50;;
703;SDS011;335;48.694;9.120;2022-11-20T08:18:00;3.70;;;3.40;;
703;SDS011;335;48.694;9.120;2022-11-20T08:20:26;3.35;;;3.05;;
703;SDS011;335;48.694;9.120;2022-11-20T08:22:51;2.60;;;2.50;;
703;SDS011;335;48.694;9.120;2022-11-20T08:25:16;3.50;;;3.20;;
703;SDS011;335;48.694;9.120;2022-11-20T08:27:42;3.50;;;3.30;;
703;SDS011;335;48.694;9.120;2022-11-20T08:30:07;2.70;;;2.53;;
703;SDS011;335;48.694;9.120;2022-11-20T08:32:33;3.13;;;2.70;;
703;SDS011;335;48.694;9.120;2022-11-20T08:35:01;3.25;;;3.00;;
703;SDS011;335;48.694;9.120;2022-11-20T08:37:26;2.80;;;2.60;;
703;SDS011;335;48.694;9.120;2022-11-20T08:39:51;2.47;;;2.37;;
703;SDS011;335;48.694;9.120;2022-11-20T08:42:18;2.65;;;2.45;;
703;SDS011;335;48.694;9.120;2022-11-20T08:44:43;2.90;;;2.60;;
703;SDS011;335;48.694;9.120;2022-11-20T08:47:10;2.30;;;2.20;;
703;SDS011;335;48.694;9.120;2022-11-20T08:49:37;2.83;;;2.43;;
703;SDS011;335;48.694;9.120;2022-11-20T08:52:02;1.95;;;1.80;;
703;SDS011;335;48.694;9.120;2022-11-20T08:54:28;1.73;;;1.63;;
703;SDS011;335;48.694;9.120;2022-11-20T08:56:53;2.40;;;2.30;;
703;SDS011;335;48.694;9.120;2022-11-20T08:59:19;1.97;;;1.87;;
703;SDS011;335;48.694;9.120;2022-11-20T09:01:45;2.00;;;1.80;;
703;SDS011;335;48.694;9.120;2022-11-20T09:04:10;1.75;;;1.70;;
703;SDS011;335;48.694;9.120;2022-11-20T09:06:36;1.80;;;1.70;;
703;SDS011;335;48.694;9.120;2022-11-20T09:09:02;1.80;;;1.70;;
703;SDS011;335;48.694;9.120;2022-11-20T09:11:27;1.33;;;1.23;;
703;SDS011;335;48.694;9.120;2022-11-20T09:13:52;1.10;;;1.10;;
703;SDS011;335;48.694;9.120;2022-11-20T09:16:18;1.50;;;1.40;;
703;SDS011;335;48.694;9.120;2022-11-20T09:18:43;1.37;;;1.30;;
703;SDS011;335;48.694;9.120;2022-11-20T09:21:09;2.40;;;1.10;;
703;SDS011;335;48.694;9.120;2022-11-20T09:23:37;1.13;;;1.13;;
703;SDS011;335;48.694;9.120;2022-11-20T09:26:04;1.00;;;1.00;;
703;SDS011;335;48.694;9.120;2022-11-20T09:28:30;1.75;;;0.93;;
703;SDS011;335;48.694;9.120;2022-11-20T09:30:56;1.03;;;1.03;;
703;SDS011;335;48.694;9.120;2022-11-20T09:33:22;0.90;;;0.90;;
703;SDS011;335;48.694;9.120;2022-11-20T09:35:47;0.63;;;0.63;;
703;SDS011;335;48.694;9.120;2022-11-20T09:38:12;0.77;;;0.73;;
703;SDS011;335;48.694;9.120;2022-11-20T09:40:40;0.55;;;0.55;;
703;SDS011;335;48.694;9.120;2022-11-20T09:43:20;0.60;;;0.60;;
703;SDS011;335;48.694;9.120;2022-11-20T09:54:26;1.30;;;1.20;;
703;SDS011;335;48.694;9.120;2022-11-20T09:57:01;0.68;;;0.68;;
703;SDS011;335;48.694;9.120;2022-11-20T09:59:39;0.60;;;0.50;;
703;SDS011;335;48.694;9.120;2022-11-20T10:02:12;0.80;;;0.80;;
703;SDS011;335;48.694;9.120;2022-11-20T10:04:58;0.70;;;0.70;;
703;SDS011;335;48.694;9.120;2022-11-20T10:07:30;0.60;;;0.60;;
703;SDS011;335;48.694;9.120;2022-11-20T10:10:16;1.05;;;0.95;;
703;SDS011;335;48.694;9.120;2022-11-20T10:20:44;0.60;;;0.60;;
703;SDS011;335;48.694;9.120;2022-11-20T10:30:59;0.80;;;0.80;;
703;SDS011;335;48.694;9.120;2022-11-20T10:33:29;0.77;;;0.77;;
703;SDS011;335;48.694;9.120;2022-11-20T10:36:17;0.82;;;0.82;;
703;SDS011;335;48.694;9.120;2022-11-20T10:38:56;0.93;;;0.70;;
703;SDS011;335;48.694;9.120;2022-11-20T10:41:27;0.85;;;0.85;;
703;SDS011;335;48.694;9.120;2022-11-20T10:44:04;0.43;;;0.43;;
703;SDS011;335;48.694;9.120;2022-11-20T10:46:44;0.52;;;0.52;;
703;SDS011;335;48.694;9.120;2022-11-20T10:49:19;0.83;;;0.70;;
703;SDS011;335;48.694;9.120;2022-11-20T10:54:31;1.02;;;0.82;;
703;SDS011;335;48.694;9.120;2022-11-20T10:57:05;0.90;;;0.90;;
703;SDS011;335;48.694;9.120;2022-11-20T11:00:11;0.65;;;0.63;;
703;SDS011;335;48.694;9.120;2022-11-20T11:05:14;0.75;;;0.70;;
703;SDS011;335;48.694;9.120;2022-11-20T11:07:43;0.80;;;0.80;;
703;SDS011;335;48.694;9.120;2022-11-20T11:10:14;0.75;;;0.75;;
703;SDS011;335;48.694;9.120;2022-11-20T11:12:45;1.20;;;1.10;;
703;SDS011;335;48.694;9.120;2022-11-20T11:15:58;0.90;;;0.70;;
703;SDS011;335;48.694;9.120;2022-11-20T11:18:03;1.47;;;0.53;;
703;SDS011;335;48.694;9.120;2022-11-20T11:20:28;0.93;;;0.70;;
703;SDS011;335;48.694;9.120;2022-11-20T11:22:54;0.97;;;0.80;;
703;SDS011;335;48.694;9.120;2022-11-20T11:25:22;1.00;;;0.83;;
703;SDS011;335;48.694;9.120;2022-11-20T11:28:04;1.93;;;0.90;;
703;SDS011;335;48.694;9.120;2022-11-20T11:30:45;0.80;;;0.80;;
703;SDS011;335;48.694;9.120;2022-11-20T11:33:31;1.63;;;0.93;;
703;SDS011;335;48.694;9.120;2022-11-20T11:36:00;1.23;;;0.73;;
703;SDS011;335;48.694;9.120;2022-11-20T11:38:35;1.20;;;1.10;;
703;SDS011;335;48.694;9.120;2022-11-20T11:41:05;3.03;;;1.07;;
703;SDS011;335;48.694;9.120;2022-11-20T11:43:35;2.07;;;0.80;;
703;SDS011;335;48.694;9.120;2022-11-20T11:51:39;5.07;;;1.03;;
703;SDS011;335;48.694;9.120;2022-11-20T11:56:55;1.13;;;0.73;;
703;SDS011;335;48.694;9.120;2022-11-20T11:59:26;1.43;;;0.90;;
703;SDS011;335;48.694;9.120;2022-11-20T12:02:02;2.33;;;0.97;;
703;SDS011;335;48.694;9.120;2022-11-20T12:04:44;1.70;;;1.03;;
703;SDS011;335;48.694;9.120;2022-11-20T12:07:20;1.80;;;1.70;;
703;SDS011;335;48.694;9.120;2022-11-20T12:09:51;0.80;;;0.80;;
703;SDS011;335;48.694;9.120;2022-11-20T12:12:19;1.80;;;1.70;;
703;SDS011;335;48.694;9.120;2022-11-20T12:14:47;1.83;;;1.50;;
703;SDS011;335;48.694;9.120;2022-11-20T12:17:15;1.00;;;1.00;;
703;SDS011;335;48.694;9.120;2022-11-20T12:19:40;1.40;;;1.30;;
703;SDS011;335;48.694;9.120;2022-11-20T12:27:36;1.10;;;1.00;;
703;SDS011;335;48.694;9.120;2022-11-20T12:30:14;3.07;;;0.90;;
703;SDS011;335;48.694;9.120;2022-11-20T12:35:57;1.53;;;1.40;;
703;SDS011;335;48.694;9.120;2022-11-20T12:44:54;1.40;;;1.27;;
703;SDS011;335;48.694;9.120;2022-11-20T12:53:05;0.83;;;0.83;;
703;SDS011;335;48.694;9.120;2022-11-20T12:58:11;1.53;;;1.30;;
703;SDS011;335;48.694;9.120;2022-11-20T13:00:50;1.37;;;0.90;;
703;SDS011;335;48.694;9.120;2022-11-20T13:03:44;0.97;;;0.97;;
703;SDS011;335;48.694;9.120;2022-11-20T13:09:17;3.80;;;1.47;;
703;SDS011;335;48.694;9.120;2022-11-20T13:11:41;1.83;;;1.40;;
703;SDS011;335;48.694;9.120;2022-11-20T13:19:46;1.97;;;1.00;;
703;SDS011;335;48.694;9.120;2022-11-20T13:22:29;1.27;;;0.93;;
703;SDS011;335;48.694;9.120;2022-11-20T13:25:09;1.87;;;0.90;;
703;SDS011;335;48.694;9.120;2022-11-20T13:27:47;0.70;;;0.70;;
703;SDS011;335;48.694;9.120;2022-11-20T13:30:15;1.30;;;0.90;;
703;SDS011;335;48.694;9.120;2022-11-20T13:32:49;1.03;;;1.03;;
703;SDS011;335;48.694;9.120;2022-11-20T13:35:35;2.30;;;1.20;;
703;SDS011;335;48.694;9.120;2022-11-20T13:38:12;1.20;;;1.10;;
703;SDS011;335;48.694;9.120;2022-11-20T13:40:49;1.90;;;1.03;;
703;SDS011;335;48.694;9.120;2022-11-20T13:43:18;1.67;;;0.80;;
703;SDS011;335;48.694;9.120;2022-11-20T13:46:00;1.00;;;1.00;;
703;SDS011;335;48.694;9.120;2022-11-20T13:48:29;1.10;;;1.00;;
703;SDS011;335;48.694;9.120;2022-11-20T13:51:02;1.43;;;1.03;;
703;SDS011;335;48.694;9.120;2022-11-20T14:01:29;0.90;;;0.90;;
703;SDS011;335;48.694;9.120;2022-11-20T14:03:56;1.17;;;0.87;;
703;SDS011;335;48.694;9.120;2022-11-20T14:06:26;3.03;;;1.67;;
703;SDS011;335;48.694;9.120;2022-11-20T14:08:52;1.23;;;0.87;;
703;SDS011;335;48.694;9.120;2022-11-20T14:11:25;1.20;;;1.10;;
703;SDS011;335;48.694;9.120;2022-11-20T14:13:52;1.33;;;0.60;;
703;SDS011;335;48.694;9.120;2022-11-20T14:16:21;1.23;;;1.17;;
703;SDS011;335;48.694;9.120;2022-11-20T14:18:47;0.60;;;0.60;;
703;SDS011;335;48.694;9.120;2022-11-20T14:21:21;1.80;;;1.00;;
703;SDS011;335;48.694;9.120;2022-11-20T14:23:47;5.10;;;1.27;;
703;SDS011;335;48.694;9.120;2022-11-20T14:26:14;1.57;;;1.00;;
703;SDS011;335;48.694;9.120;2022-11-20T14:28:42;1.20;;;1.10;;
703;SDS011;335;48.694;9.120;2022-11-20T14:31:09;1.37;;;0.90;;
703;SDS011;335;48.694;9.120;2022-11-20T14:33:44;1.43;;;1.30;;
703;SDS011;335;48.694;9.120;2022-11-20T14:36:15;1.30;;;0.97;;
703;SDS011;335;48.694;9.120;2022-11-20T14:38:42;1.30;;;0.80;;
703;SDS011;335;48.694;9.120;2022-11-20T14:41:08;1.20;;;1.00;;
703;SDS011;335;48.694;9.120;2022-11-20T14:43:39;1.20;;;1.20;;
703;SDS011;335;48.694;9.120;2022-11-20T14:46:05;1.13;;;0.87;;
703;SDS011;335;48.694;9.120;2022-11-20T14:48:41;0.93;;;0.93;;
703;SDS011;335;48.694;9.120;2022-11-20T14:51:10;2.87;;;1.27;;
703;SDS011;335;48.694;9.120;2022-11-20T14:53:36;1.43;;;1.30;;
703;SDS011;335;48.694;9.120;2022-11-20T14:56:01;1.87;;;1.50;;
703;SDS011;335;48.694;9.120;2022-11-20T14:58:28;2.27;;;1.60;;
703;SDS011;335;48.694;9.120;2022-11-20T15:01:02;1.13;;;1.03;;
703;SDS011;335;48.694;9.120;2022-11-20T15:03:33;1.97;;;1.63;;
703;SDS011;335;48.694;9.120;2022-11-20T15:06:04;16.13;;;8.60;;
703;SDS011;335;48.694;9.120;2022-11-20T15:08:30;3.53;;;1.90;;
703;SDS011;335;48.694;9.120;2022-11-20T15:10:58;1.88;;;1.40;;
703;SDS011;335;48.694;9.120;2022-11-20T15:16:00;1.60;;;1.50;;
703;SDS011;335;48.694;9.120;2022-11-20T15:18:36;1.90;;;1.80;;
703;SDS011;335;48.694;9.120;2022-11-20T15:21:06;1.17;;;1.10;;
703;SDS011;335;48.694;9.120;2022-11-20T15:23:48;1.95;;;1.35;;
703;SDS011;335;48.694;9.120;2022-11-20T15:26:19;1.85;;;1.52;;
703;SDS011;335;48.694;9.120;2022-11-20T15:28:50;1.45;;;1.35;;
703;SDS011;335;48.694;9.120;2022-11-20T15:31:21;1.38;;;1.30;;
703;SDS011;335;48.694;9.120;2022-11-20T15:33:50;2.05;;;1.70;;
703;SDS011;335;48.694;9.120;2022-11-20T15:36:15;4.50;;;1.83;;
703;SDS011;335;48.694;9.120;2022-11-20T15:38:41;1.50;;;1.40;;
703;SDS011;335;48.694;9.120;2022-11-20T15:41:07;1.93;;;1.30;;
703;SDS011;335;48.694;9.120;2022-11-20T15:43:35;1.67;;;1.57;;
703;SDS011;335;48.694;9.120;2022-11-20T15:46:05;1.50;;;1.40;;
703;SDS011;335;48.694;9.120;2022-11-20T15:48:34;1.75;;;1.65;;
703;SDS011;335;48.694;9.120;2022-11-20T15:51:03;2.20;;;2.10;;
703;SDS011;335;48.694;9.120;2022-11-20T15:53:33;2.00;;;1.90;;
703;SDS011;335;48.694;9.120;2022-11-20T15:56:03;1.80;;;1.70;;
703;SDS011;335;48.694;9.120;2022-11-20T15:58:28;1.67;;;1.58;;
703;SDS011;335;48.694;9.120;2022-11-20T16:00:55;3.25;;;2.13;;
703;SDS011;335;48.694;9.120;2022-11-20T16:03:21;1.53;;;1.53;;
703;SDS011;335;48.694;9.120;2022-11-20T16:05:46;1.30;;;1.30;;
703;SDS011;335;48.694;9.120;2022-11-20T16:08:14;1.73;;;1.63;;
703;SDS011;335;48.694;9.120;2022-11-20T16:10:41;1.85;;;1.75;;
703;SDS011;335;48.694;9.120;2022-11-20T16:13:15;1.90;;;1.80;;
703;SDS011;335;48.694;9.120;2022-11-20T16:16:02;2.03;;;1.90;;
703;SDS011;335;48.694;9.120;2022-11-20T16:18:30;1.80;;;1.70;;
703;SDS011;335;48.694;9.120;2022-11-20T16:20:56;4.18;;;3.90;;
703;SDS011;335;48.694;9.120;2022-11-20T16:23:22;2.50;;;2.40;;
703;SDS011;335;48.694;9.120;2022-11-20T16:25:48;2.07;;;1.87;;
703;SDS011;335;48.694;9.120;2022-11-20T16:28:14;3.58;;;3.28;;
703;SDS011;335;48.694;9.120;2022-11-20T16:30:39;3.20;;;3.00;;
703;SDS011;335;48.694;9.120;2022-11-20T16:33:09;5.73;;;5.20;;
703;SDS011;335;48.694;9.120;2022-11-20T16:35:39;2.00;;;1.90;;
703;SDS011;335;48.694;9.120;2022-11-20T16:38:05;2.53;;;2.43;;
703;SDS011;335;48.694;9.120;2022-11-20T16:40:30;3.20;;;2.20;;
703;SDS011;335;48.694;9.120;2022-11-20T16:42:56;3.40;;;2.50;;
703;SDS011;335;48.694;9.120;2022-11-20T16:45:22;3.00;;;2.70;;
703;SDS011;335;48.694;9.120;2022-11-20T16:47:48;2.17;;;2.07;;
703;SDS011;335;48.694;9.120;2022-11-20T16:50:14;2.45;;;2.28;;
703;SDS011;335;48.694;9.120;2022-11-20T16:52:40;3.10;;;2.43;;
703;SDS011;335;48.694;9.120;2022-11-20T16:55:05;2.67;;;2.47;;
703;SDS011;335;48.694;9.120;2022-11-20T16:57:31;2.27;;;2.17;;
703;SDS011;335;48.694;9.120;2022-11-20T17:00:00;4.88;;;2.70;;
703;SDS011;335;48.694;9.120;2022-11-20T17:02:25;3.20;;;2.90;;
703;SDS011;335;48.694;9.120;2022-11-20T17:04:51;3.10;;;2.80;;
703;SDS011;335;48.694;9.120;2022-11-20T17:07:18;2.83;;;2.38;;
703;SDS011;335;48.694;9.120;2022-11-20T17:09:43;4.07;;;3.47;;
703;SDS011;335;48.694;9.120;2022-11-20T17:12:09;2.67;;;2.47;;
703;SDS011;335;48.694;9.120;2022-11-20T17:14:34;2.70;;;2.50;;
703;SDS011;335;48.694;9.120;2022-11-20T17:17:00;2.43;;;2.33;;
703;SDS011;335;48.694;9.120;2022-11-20T17:19:35;2.85;;;2.65;;
703;SDS011;335;48.694;9.120;2022-11-20T17:22:03;2.25;;;2.15;;